N1058T KTTN-KHFD
Flight info
| Callsign | N1058T |
|---|---|
| Flight time | 0h 56m |
| Altitude | 3500 |
| Route | |
| Aircraft | PA28/L-DOV/C |
Departure
| Time | 2026-04-20 23:25 |
|---|---|
| Airport | Trenton Mercer Airport (KTTN) |
Arrival
| Time | 2026-04-21 00:21 |
|---|---|
| Airport | Hartford Brainard Airport (KHFD) |
| Time | Latitude | Longitude | Altitude | Speed | Heading |
|---|---|---|---|---|---|
| 2026-04-20 23:25 | 40.46015 | -74.72657 | 3007 ft | 142 kts | 351° |
| 2026-04-20 23:25 | 40.46997 | -74.72803 | 3001 ft | 142 kts | 351° |
| 2026-04-20 23:25 | 40.47976 | -74.72954 | 3012 ft | 142 kts | 351° |
| 2026-04-20 23:25 | 40.48964 | -74.73099 | 3014 ft | 143 kts | 351° |
| 2026-04-20 23:26 | 40.49955 | -74.73247 | 3001 ft | 143 kts | 351° |
| 2026-04-20 23:26 | 40.50937 | -74.73402 | 3002 ft | 142 kts | 351° |
| 2026-04-20 23:26 | 40.51911 | -74.73549 | 3000 ft | 141 kts | 351° |
| 2026-04-20 23:26 | 40.52882 | -74.73694 | 3003 ft | 140 kts | 351° |
| 2026-04-20 23:27 | 40.53852 | -74.73829 | 3006 ft | 140 kts | 351° |
| 2026-04-20 23:27 | 40.54822 | -74.73967 | 3009 ft | 140 kts | 351° |
| 2026-04-20 23:27 | 40.55793 | -74.74108 | 3011 ft | 140 kts | 351° |
| 2026-04-20 23:27 | 40.56763 | -74.74246 | 3002 ft | 140 kts | 351° |
| 2026-04-20 23:28 | 40.57728 | -74.74391 | 3002 ft | 139 kts | 351° |
| 2026-04-20 23:28 | 40.58680 | -74.74535 | 3010 ft | 139 kts | 351° |
| 2026-04-20 23:28 | 40.59643 | -74.74690 | 3010 ft | 139 kts | 351° |
| 2026-04-20 23:28 | 40.60609 | -74.74773 | 3012 ft | 140 kts | 358° |
| 2026-04-20 23:29 | 40.61585 | -74.74696 | 3011 ft | 141 kts | 1° |
| 2026-04-20 23:29 | 40.62565 | -74.74578 | 3012 ft | 141 kts | 2° |
| 2026-04-20 23:29 | 40.63546 | -74.74441 | 3011 ft | 142 kts | 3° |
| 2026-04-20 23:29 | 40.64529 | -74.74294 | 3006 ft | 141 kts | 3° |
| 2026-04-20 23:30 | 40.65507 | -74.74146 | 3004 ft | 141 kts | 3° |
| 2026-04-20 23:30 | 40.66485 | -74.73995 | 3006 ft | 141 kts | 3° |
| 2026-04-20 23:30 | 40.67462 | -74.73851 | 3006 ft | 141 kts | 3° |
| 2026-04-20 23:30 | 40.68441 | -74.73706 | 3007 ft | 142 kts | 3° |
| 2026-04-20 23:31 | 40.69421 | -74.73554 | 3011 ft | 142 kts | 4° |
| 2026-04-20 23:31 | 40.70391 | -74.73351 | 3009 ft | 143 kts | 6° |
| 2026-04-20 23:31 | 40.71368 | -74.73103 | 3012 ft | 143 kts | 7° |
| 2026-04-20 23:31 | 40.72349 | -74.72846 | 3020 ft | 144 kts | 7° |
| 2026-04-20 23:32 | 40.73334 | -74.72570 | 3018 ft | 145 kts | 8° |
| 2026-04-20 23:32 | 40.74315 | -74.72243 | 3004 ft | 145 kts | 10° |
| 2026-04-20 23:32 | 40.75285 | -74.71864 | 3006 ft | 145 kts | 12° |
| 2026-04-20 23:32 | 40.76244 | -74.71461 | 3007 ft | 145 kts | 14° |
| 2026-04-20 23:33 | 40.77189 | -74.70982 | 3012 ft | 145 kts | 17° |
| 2026-04-20 23:33 | 40.78114 | -74.70469 | 3002 ft | 144 kts | 18° |
| 2026-04-20 23:33 | 40.79030 | -74.69940 | 3014 ft | 144 kts | 19° |
| 2026-04-20 23:33 | 40.79947 | -74.69404 | 3028 ft | 145 kts | 19° |
| 2026-04-20 23:34 | 40.80856 | -74.68862 | 3015 ft | 145 kts | 19° |
| 2026-04-20 23:34 | 40.81776 | -74.68323 | 3007 ft | 144 kts | 19° |
| 2026-04-20 23:34 | 40.82692 | -74.67785 | 3010 ft | 143 kts | 18° |
| 2026-04-20 23:34 | 40.83603 | -74.67242 | 3032 ft | 145 kts | 18° |
| 2026-04-20 23:35 | 40.84523 | -74.66689 | 3020 ft | 145 kts | 19° |
| 2026-04-20 23:35 | 40.86374 | -74.65584 | 3018 ft | 146 kts | 19° |
| 2026-04-20 23:35 | 40.87294 | -74.65038 | 3010 ft | 144 kts | 19° |
| 2026-04-20 23:36 | 40.88209 | -74.64487 | 3012 ft | 144 kts | 19° |
| 2026-04-20 23:36 | 40.89117 | -74.63940 | 3008 ft | 142 kts | 19° |
| 2026-04-20 23:36 | 40.90015 | -74.63401 | 3016 ft | 142 kts | 19° |
| 2026-04-20 23:36 | 40.90918 | -74.62860 | 3013 ft | 142 kts | 19° |
| 2026-04-20 23:37 | 40.91803 | -74.62321 | 3010 ft | 140 kts | 19° |
| 2026-04-20 23:37 | 40.92679 | -74.61742 | 3011 ft | 143 kts | 26° |
| 2026-04-20 23:37 | 40.93453 | -74.60899 | 3021 ft | 145 kts | 34° |
| 2026-04-20 23:37 | 40.94196 | -74.59986 | 3026 ft | 146 kts | 37° |
| 2026-04-20 23:38 | 40.94693 | -74.59360 | 3018 ft | 146 kts | 37° |
| 2026-04-20 23:38 | 40.95415 | -74.58429 | 3034 ft | 147 kts | 39° |
| 2026-04-20 23:38 | 40.96147 | -74.57482 | 3030 ft | 147 kts | 38° |
| 2026-04-20 23:38 | 40.96877 | -74.56539 | 3012 ft | 146 kts | 37° |
| 2026-04-20 23:39 | 40.97596 | -74.55601 | 2993 ft | 144 kts | 38° |
| 2026-04-20 23:39 | 40.98310 | -74.54686 | 3014 ft | 142 kts | 37° |
| 2026-04-20 23:39 | 40.99016 | -74.53773 | 2968 ft | 140 kts | 36° |
| 2026-04-20 23:39 | 40.99713 | -74.52896 | 2967 ft | 138 kts | 37° |
| 2026-04-20 23:40 | 41.00363 | -74.51940 | 3009 ft | 142 kts | 43° |
| 2026-04-20 23:40 | 41.00967 | -74.50904 | 3029 ft | 146 kts | 45° |
| 2026-04-20 23:40 | 41.01586 | -74.49817 | 3050 ft | 149 kts | 46° |
| 2026-04-20 23:40 | 41.02222 | -74.48709 | 3049 ft | 153 kts | 46° |
| 2026-04-20 23:41 | 41.02866 | -74.47571 | 3042 ft | 155 kts | 46° |
| 2026-04-20 23:41 | 41.03328 | -74.46250 | 3035 ft | 161 kts | 65° |
| 2026-04-20 23:41 | 41.03667 | -74.44849 | 3009 ft | 158 kts | 66° |
| 2026-04-20 23:41 | 41.03981 | -74.43465 | 3025 ft | 157 kts | 66° |
| 2026-04-20 23:42 | 41.04287 | -74.42069 | 3049 ft | 159 kts | 68° |
| 2026-04-20 23:42 | 41.04593 | -74.40659 | 3029 ft | 159 kts | 68° |
| 2026-04-20 23:42 | 41.04903 | -74.39250 | 3012 ft | 158 kts | 67° |
| 2026-04-20 23:42 | 41.05208 | -74.37850 | 3019 ft | 158 kts | 67° |
| 2026-04-20 23:43 | 41.05505 | -74.36451 | 3016 ft | 158 kts | 67° |
| 2026-04-20 23:43 | 41.05799 | -74.35063 | 3026 ft | 159 kts | 67° |
| 2026-04-20 23:43 | 41.06100 | -74.33651 | 3034 ft | 160 kts | 67° |
| 2026-04-20 23:43 | 41.06400 | -74.32227 | 3027 ft | 160 kts | 67° |
| 2026-04-20 23:44 | 41.06696 | -74.30810 | 3012 ft | 159 kts | 67° |
| 2026-04-20 23:44 | 41.06990 | -74.29403 | 3012 ft | 158 kts | 67° |
| 2026-04-20 23:44 | 41.07284 | -74.28002 | 3022 ft | 158 kts | 67° |
| 2026-04-20 23:44 | 41.07575 | -74.26597 | 3032 ft | 159 kts | 67° |
| 2026-04-20 23:45 | 41.07870 | -74.25180 | 3028 ft | 159 kts | 67° |
| 2026-04-20 23:45 | 41.08192 | -74.23772 | 3030 ft | 160 kts | 65° |
| 2026-04-20 23:45 | 41.08525 | -74.22378 | 3004 ft | 157 kts | 65° |
| 2026-04-20 23:45 | 41.08859 | -74.21027 | 3000 ft | 155 kts | 64° |
| 2026-04-20 23:46 | 41.09194 | -74.19665 | 3010 ft | 155 kts | 64° |
| 2026-04-20 23:46 | 41.09525 | -74.18298 | 2993 ft | 155 kts | 65° |
| 2026-04-20 23:46 | 41.09848 | -74.16948 | 2985 ft | 153 kts | 64° |
| 2026-04-20 23:46 | 41.10199 | -74.15623 | 3009 ft | 153 kts | 62° |
| 2026-04-20 23:47 | 41.10571 | -74.14296 | 3019 ft | 154 kts | 62° |
| 2026-04-20 23:47 | 41.10955 | -74.12965 | 3017 ft | 155 kts | 62° |
| 2026-04-20 23:47 | 41.11351 | -74.11636 | 3012 ft | 155 kts | 61° |
| 2026-04-20 23:47 | 41.11748 | -74.10304 | 3010 ft | 155 kts | 61° |
| 2026-04-20 23:48 | 41.12139 | -74.08991 | 3016 ft | 155 kts | 62° |
| 2026-04-20 23:48 | 41.12552 | -74.07672 | 3014 ft | 155 kts | 59° |
| 2026-04-20 23:48 | 41.12971 | -74.06358 | 3007 ft | 155 kts | 59° |
| 2026-04-20 23:48 | 41.13394 | -74.05052 | 2997 ft | 154 kts | 59° |
| 2026-04-20 23:49 | 41.13819 | -74.03756 | 2981 ft | 152 kts | 59° |
| 2026-04-20 23:49 | 41.14241 | -74.02474 | 2985 ft | 151 kts | 59° |
| 2026-04-20 23:49 | 41.14662 | -74.01193 | 2999 ft | 152 kts | 60° |
| 2026-04-20 23:49 | 41.15084 | -73.99904 | 3004 ft | 153 kts | 59° |
| 2026-04-20 23:50 | 41.15506 | -73.98609 | 2996 ft | 152 kts | 59° |
| 2026-04-20 23:50 | 41.15928 | -73.97318 | 3000 ft | 153 kts | 59° |
| 2026-04-20 23:50 | 41.16351 | -73.96040 | 2995 ft | 153 kts | 59° |
| 2026-04-20 23:50 | 41.16777 | -73.94740 | 3000 ft | 153 kts | 59° |
| 2026-04-20 23:51 | 41.17201 | -73.93442 | 3001 ft | 153 kts | 59° |
| 2026-04-20 23:51 | 41.17629 | -73.92146 | 2994 ft | 153 kts | 59° |
| 2026-04-20 23:51 | 41.18060 | -73.90847 | 2994 ft | 154 kts | 59° |
| 2026-04-20 23:51 | 41.18486 | -73.89546 | 2994 ft | 153 kts | 59° |
| 2026-04-20 23:52 | 41.18911 | -73.88250 | 2984 ft | 153 kts | 59° |
| 2026-04-20 23:52 | 41.19333 | -73.86959 | 2986 ft | 152 kts | 59° |
| 2026-04-20 23:52 | 41.19748 | -73.85684 | 2988 ft | 152 kts | 59° |
| 2026-04-20 23:52 | 41.20170 | -73.84391 | 2984 ft | 152 kts | 59° |
| 2026-04-20 23:53 | 41.20581 | -73.83098 | 2994 ft | 153 kts | 59° |
| 2026-04-20 23:53 | 41.21003 | -73.81793 | 3003 ft | 154 kts | 59° |
| 2026-04-20 23:53 | 41.21429 | -73.80490 | 2989 ft | 154 kts | 59° |
| 2026-04-20 23:53 | 41.21850 | -73.79186 | 2986 ft | 153 kts | 59° |
| 2026-04-20 23:54 | 41.22268 | -73.77880 | 2990 ft | 154 kts | 59° |
| 2026-04-20 23:54 | 41.22693 | -73.76575 | 2995 ft | 154 kts | 59° |
| 2026-04-20 23:54 | 41.23121 | -73.75266 | 2987 ft | 154 kts | 59° |
| 2026-04-20 23:54 | 41.23547 | -73.73958 | 2989 ft | 154 kts | 59° |
| 2026-04-20 23:55 | 41.23975 | -73.72656 | 2999 ft | 154 kts | 59° |
| 2026-04-20 23:55 | 41.24408 | -73.71351 | 2984 ft | 154 kts | 59° |
| 2026-04-20 23:55 | 41.24834 | -73.70069 | 2988 ft | 153 kts | 59° |
| 2026-04-20 23:55 | 41.25269 | -73.68780 | 2987 ft | 153 kts | 59° |
| 2026-04-20 23:56 | 41.25695 | -73.67474 | 2991 ft | 154 kts | 60° |
| 2026-04-20 23:56 | 41.26107 | -73.66162 | 2996 ft | 153 kts | 61° |
| 2026-04-20 23:56 | 41.26513 | -73.64852 | 2994 ft | 153 kts | 60° |
| 2026-04-20 23:56 | 41.26903 | -73.63549 | 2980 ft | 151 kts | 61° |
| 2026-04-20 23:57 | 41.27288 | -73.62256 | 2991 ft | 150 kts | 61° |
| 2026-04-20 23:57 | 41.27667 | -73.60978 | 3000 ft | 151 kts | 61° |
| 2026-04-20 23:57 | 41.28057 | -73.59658 | 2994 ft | 151 kts | 61° |
| 2026-04-20 23:57 | 41.28434 | -73.58372 | 2992 ft | 151 kts | 61° |
| 2026-04-20 23:58 | 41.28819 | -73.57072 | 3002 ft | 152 kts | 61° |
| 2026-04-20 23:58 | 41.29212 | -73.55765 | 2990 ft | 152 kts | 61° |
| 2026-04-20 23:58 | 41.29603 | -73.54463 | 2984 ft | 151 kts | 61° |
| 2026-04-20 23:58 | 41.29989 | -73.53168 | 2991 ft | 151 kts | 61° |
| 2026-04-20 23:59 | 41.30373 | -73.51869 | 2986 ft | 151 kts | 61° |
| 2026-04-20 23:59 | 41.30761 | -73.50567 | 2985 ft | 151 kts | 61° |
| 2026-04-20 23:59 | 41.31141 | -73.49267 | 2992 ft | 151 kts | 61° |
| 2026-04-20 23:59 | 41.31524 | -73.47965 | 2993 ft | 151 kts | 61° |
| 2026-04-21 00:00 | 41.31912 | -73.46657 | 2974 ft | 151 kts | 60° |
| 2026-04-21 00:00 | 41.32291 | -73.45354 | 2992 ft | 151 kts | 61° |
| 2026-04-21 00:00 | 41.32667 | -73.44050 | 2997 ft | 151 kts | 62° |
| 2026-04-21 00:00 | 41.33053 | -73.42740 | 2998 ft | 152 kts | 61° |
| 2026-04-21 00:01 | 41.33450 | -73.41422 | 3039 ft | 154 kts | 60° |
| 2026-04-21 00:01 | 41.33850 | -73.40098 | 3029 ft | 154 kts | 60° |
| 2026-04-21 00:01 | 41.34246 | -73.38797 | 3020 ft | 153 kts | 60° |
| 2026-04-21 00:01 | 41.34652 | -73.37497 | 3029 ft | 152 kts | 60° |
| 2026-04-21 00:02 | 41.35058 | -73.36190 | 3028 ft | 153 kts | 60° |
| 2026-04-21 00:02 | 41.35462 | -73.34880 | 3029 ft | 152 kts | 60° |
| 2026-04-21 00:02 | 41.35862 | -73.33577 | 3022 ft | 152 kts | 60° |
| 2026-04-21 00:02 | 41.36261 | -73.32271 | 3027 ft | 152 kts | 60° |
| 2026-04-21 00:03 | 41.36665 | -73.30971 | 3025 ft | 152 kts | 60° |
| 2026-04-21 00:03 | 41.37069 | -73.29676 | 3032 ft | 152 kts | 60° |
| 2026-04-21 00:03 | 41.37479 | -73.28366 | 3032 ft | 154 kts | 60° |
| 2026-04-21 00:03 | 41.37892 | -73.27053 | 3009 ft | 154 kts | 60° |
| 2026-04-21 00:04 | 41.38308 | -73.25745 | 3012 ft | 154 kts | 60° |
| 2026-04-21 00:04 | 41.38720 | -73.24449 | 3017 ft | 154 kts | 60° |
| 2026-04-21 00:04 | 41.39140 | -73.23132 | 3007 ft | 154 kts | 60° |
| 2026-04-21 00:04 | 41.39560 | -73.21815 | 3005 ft | 154 kts | 59° |
| 2026-04-21 00:05 | 41.39973 | -73.20502 | 3005 ft | 153 kts | 60° |
| 2026-04-21 00:05 | 41.40378 | -73.19208 | 2987 ft | 150 kts | 60° |
| 2026-04-21 00:05 | 41.40784 | -73.17932 | 3015 ft | 150 kts | 60° |
| 2026-04-21 00:05 | 41.41194 | -73.16637 | 3009 ft | 152 kts | 60° |
| 2026-04-21 00:06 | 41.41594 | -73.15358 | 3006 ft | 151 kts | 60° |
| 2026-04-21 00:06 | 41.42002 | -73.14064 | 3015 ft | 152 kts | 60° |
| 2026-04-21 00:06 | 41.42414 | -73.12763 | 3012 ft | 152 kts | 60° |
| 2026-04-21 00:06 | 41.42827 | -73.11463 | 3025 ft | 153 kts | 60° |
| 2026-04-21 00:07 | 41.43245 | -73.10149 | 3017 ft | 154 kts | 60° |
| 2026-04-21 00:07 | 41.43663 | -73.08838 | 3003 ft | 153 kts | 60° |
| 2026-04-21 00:07 | 41.44086 | -73.07533 | 3007 ft | 153 kts | 60° |
| 2026-04-21 00:07 | 41.44507 | -73.06242 | 3015 ft | 154 kts | 60° |
| 2026-04-21 00:08 | 41.44930 | -73.04934 | 3020 ft | 154 kts | 60° |
| 2026-04-21 00:08 | 41.45355 | -73.03623 | 2993 ft | 153 kts | 59° |
| 2026-04-21 00:08 | 41.45778 | -73.02319 | 3006 ft | 153 kts | 59° |
| 2026-04-21 00:08 | 41.46222 | -73.01021 | 3024 ft | 154 kts | 58° |
| 2026-04-21 00:09 | 41.46675 | -72.99722 | 3014 ft | 155 kts | 58° |
| 2026-04-21 00:09 | 41.47133 | -72.98430 | 2996 ft | 153 kts | 58° |
| 2026-04-21 00:09 | 41.47584 | -72.97170 | 3010 ft | 153 kts | 58° |
| 2026-04-21 00:09 | 41.48041 | -72.95884 | 3003 ft | 153 kts | 58° |
| 2026-04-21 00:10 | 41.48502 | -72.94597 | 3009 ft | 153 kts | 58° |
| 2026-04-21 00:10 | 41.48964 | -72.93323 | 3003 ft | 152 kts | 58° |
| 2026-04-21 00:10 | 41.49428 | -72.92046 | 3009 ft | 153 kts | 58° |
| 2026-04-21 00:10 | 41.49895 | -72.90765 | 3008 ft | 153 kts | 58° |
| 2026-04-21 00:11 | 41.50362 | -72.89486 | 3010 ft | 153 kts | 58° |
| 2026-04-21 00:11 | 41.50829 | -72.88228 | 3011 ft | 153 kts | 56° |
| 2026-04-21 00:11 | 41.51327 | -72.86971 | 3009 ft | 153 kts | 56° |
| 2026-04-21 00:11 | 41.51834 | -72.85724 | 3004 ft | 153 kts | 55° |
| 2026-04-21 00:12 | 41.52342 | -72.84483 | 3005 ft | 152 kts | 55° |
| 2026-04-21 00:12 | 41.52858 | -72.83241 | 2999 ft | 153 kts | 54° |
| 2026-04-21 00:12 | 41.53372 | -72.82002 | 3001 ft | 152 kts | 54° |
| 2026-04-21 00:12 | 41.53888 | -72.80767 | 3000 ft | 152 kts | 54° |
| 2026-04-21 00:13 | 41.54404 | -72.79529 | 3000 ft | 152 kts | 54° |
| 2026-04-21 00:13 | 41.54914 | -72.78284 | 3003 ft | 153 kts | 56° |
| 2026-04-21 00:13 | 41.55390 | -72.77006 | 3001 ft | 154 kts | 58° |
| 2026-04-21 00:13 | 41.55858 | -72.75716 | 2939 ft | 151 kts | 59° |
| 2026-04-21 00:14 | 41.56302 | -72.74467 | 2643 ft | 152 kts | 58° |
| 2026-04-21 00:14 | 41.56746 | -72.73180 | 2272 ft | 150 kts | 59° |
| 2026-04-21 00:14 | 41.57170 | -72.71933 | 2023 ft | 141 kts | 59° |
| 2026-04-21 00:14 | 41.57535 | -72.70814 | 2058 ft | 124 kts | 58° |
| 2026-04-21 00:15 | 41.57855 | -72.69788 | 2070 ft | 117 kts | 58° |
| 2026-04-21 00:15 | 41.58163 | -72.68782 | 2081 ft | 117 kts | 58° |
| 2026-04-21 00:15 | 41.58489 | -72.67781 | 2097 ft | 117 kts | 53° |
| 2026-04-21 00:15 | 41.58967 | -72.66928 | 2093 ft | 112 kts | 33° |
| 2026-04-21 00:16 | 41.59634 | -72.66463 | 2087 ft | 106 kts | 6° |
| 2026-04-21 00:16 | 41.60361 | -72.66404 | 2103 ft | 105 kts | 353° |
| 2026-04-21 00:16 | 41.61082 | -72.66494 | 2103 ft | 105 kts | 350° |
| 2026-04-21 00:16 | 41.61827 | -72.66548 | 2102 ft | 107 kts | 353° |
| 2026-04-21 00:17 | 41.62562 | -72.66578 | 2101 ft | 107 kts | 354° |
| 2026-04-21 00:17 | 41.63315 | -72.66585 | 2104 ft | 109 kts | 356° |
| 2026-04-21 00:17 | 41.64060 | -72.66554 | 2028 ft | 104 kts | 358° |
| 2026-04-21 00:17 | 41.64758 | -72.66484 | 1875 ft | 97 kts | 0° |
| 2026-04-21 00:18 | 41.65425 | -72.66408 | 1776 ft | 97 kts | 1° |
| 2026-04-21 00:18 | 41.66112 | -72.66329 | 1733 ft | 101 kts | 0° |
| 2026-04-21 00:18 | 41.66810 | -72.66199 | 1731 ft | 101 kts | 1° |
| 2026-04-21 00:18 | 41.67502 | -72.66078 | 1704 ft | 103 kts | 2° |
| 2026-04-21 00:19 | 41.68235 | -72.65959 | 1524 ft | 108 kts | 1° |
| 2026-04-21 00:19 | 41.68957 | -72.65802 | 1218 ft | 102 kts | 4° |
| 2026-04-21 00:19 | 41.69648 | -72.65687 | 977 ft | 99 kts | 1° |
| 2026-04-21 00:19 | 41.70310 | -72.65569 | 778 ft | 90 kts | 2° |
| 2026-04-21 00:20 | 41.70917 | -72.65431 | 651 ft | 88 kts | 2° |
| 2026-04-21 00:20 | 41.71494 | -72.65314 | 592 ft | 83 kts | 3° |
| 2026-04-21 00:20 | 41.72072 | -72.65204 | 402 ft | 87 kts | 0° |
| 2026-04-21 00:20 | 41.72651 | -72.65082 | 257 ft | 82 kts | 5° |
| 2026-04-21 00:21 | 41.73219 | -72.64975 | 61 ft | 84 kts | 2° |
| 2026-04-21 00:21 | 41.73747 | -72.64875 | 21 ft | 68 kts | 5° |
| 2026-04-21 00:21 | 41.73990 | -72.64820 | 23 ft | 14 kts | 9° |
| 2026-04-21 00:21 | 41.74108 | -72.64789 | 24 ft | 22 kts | 13° |
| 2026-04-21 00:22 | 41.74194 | -72.64771 | 24 ft | 4 kts | 2° |
| 2026-04-21 00:22 | 41.74204 | -72.64771 | 24 ft | 1 kts | 332° |
| 2026-04-21 00:22 | 41.74252 | -72.64773 | 24 ft | 7 kts | 359° |
| 2026-04-21 00:22 | 41.74317 | -72.64760 | 24 ft | 12 kts | 358° |
| 2026-04-21 00:23 | 41.74355 | -72.64786 | 24 ft | 0 kts | 289° |
| 2026-04-21 00:23 | 41.74375 | -72.64851 | 24 ft | 12 kts | 318° |
| 2026-04-21 00:23 | 41.74429 | -72.64887 | 24 ft | 9 kts | 297° |
| 2026-04-21 00:24 | 41.74430 | -72.64897 | 24 ft | 0 kts | 263° |